createdAt,value
2019-05-10T00:00:10.125Z,68.34
2019-05-10T00:05:35.263Z,68.36
2019-05-10T00:10:47.347Z,68.34
2019-05-10T00:15:54.427Z,68.42
2019-05-10T00:21:02.451Z,68.45
2019-05-10T00:26:08.292Z,68.51
2019-05-10T00:31:15.430Z,68.54
2019-05-10T00:36:21.292Z,68.43
2019-05-10T00:41:28.428Z,68.39
2019-05-10T00:46:34.290Z,68.36
2019-05-10T00:51:41.438Z,68.30
2019-05-10T00:56:48.497Z,68.31
2019-05-10T01:01:54.340Z,68.21
2019-05-10T01:07:01.407Z,68.26
2019-05-10T01:12:07.355Z,68.21
2019-05-10T01:17:13.284Z,68.25
2019-05-10T01:22:20.451Z,68.24
2019-05-10T01:27:27.566Z,68.24
2019-05-10T01:32:34.767Z,68.41
2019-05-10T01:37:41.568Z,68.47
2019-05-10T01:42:48.474Z,68.58
2019-05-10T01:47:55.502Z,68.63
2019-05-10T01:53:02.487Z,68.77
2019-05-10T01:58:09.484Z,68.88
2019-05-10T02:03:16.472Z,68.89
2019-05-10T02:08:23.445Z,68.72
2019-05-10T02:13:30.444Z,68.74
2019-05-10T02:18:37.448Z,68.77
2019-05-10T02:23:44.421Z,68.72
2019-05-10T02:28:52.492Z,68.78
2019-05-10T02:33:59.438Z,67.97
2019-05-10T02:39:09.119Z,67.97
2019-05-10T02:44:16.409Z,68.21
2019-05-10T02:49:23.453Z,67.86
2019-05-10T02:54:30.433Z,67.74
2019-05-10T02:59:37.427Z,67.49
2019-05-10T03:04:47.462Z,67.23
2019-05-10T03:09:54.452Z,67.18
2019-05-10T03:15:01.565Z,67.23
2019-05-10T03:20:09.566Z,67.23
2019-05-10T03:25:17.417Z,66.68
2019-05-10T03:30:24.439Z,66.68
2019-05-10T03:35:31.445Z,66.63
2019-05-10T03:40:38.721Z,66.46
2019-05-10T03:45:45.577Z,66.19
2019-05-10T03:50:52.500Z,66.16
2019-05-10T03:55:59.476Z,66.16
2019-05-10T04:01:06.518Z,66.14
2019-05-10T04:06:13.576Z,66.23
2019-05-10T04:11:22.442Z,66.30
2019-05-10T04:16:29.546Z,66.40
2019-05-10T04:21:36.568Z,66.46
2019-05-10T04:26:43.436Z,66.45
2019-05-10T04:31:50.430Z,66.45
2019-05-10T04:36:57.546Z,66.35
2019-05-10T04:42:04.440Z,66.30
2019-05-10T04:47:12.710Z,66.19
2019-05-10T04:52:19.561Z,66.09
2019-05-10T04:57:26.437Z,65.74
2019-05-10T05:02:33.454Z,65.53
2019-05-10T05:07:40.434Z,65.32
2019-05-10T05:18:00.744Z,64.41
2019-05-10T05:23:07.559Z,64.83
2019-05-10T05:28:18.301Z,65.09
2019-05-10T05:33:23.384Z,65.09
2019-05-10T05:38:30.558Z,64.98
2019-05-10T05:43:45.326Z,64.75
2019-05-10T05:48:46.432Z,64.75
2019-05-10T05:53:53.461Z,64.54
2019-05-10T05:59:00.435Z,64.21
2019-05-10T06:04:12.529Z,64.11
2019-05-10T06:09:16.416Z,64.11
2019-05-10T06:14:23.467Z,64.07
2019-05-10T06:19:30.855Z,63.98
2019-05-10T06:24:37.705Z,63.67
2019-05-10T06:29:44.557Z,61.80
2019-05-10T06:34:51.435Z,60.23
2019-05-10T06:39:58.571Z,60.23
2019-05-10T06:45:14.347Z,59.43
2019-05-10T06:50:17.577Z,59.43
2019-05-10T06:55:25.248Z,57.66
2019-05-10T07:00:32.418Z,57.66
2019-05-10T07:05:39.434Z,57.29
2019-05-10T07:10:46.574Z,56.30
2019-05-10T07:15:53.572Z,56.11
2019-05-10T07:21:00.935Z,55.49
2019-05-10T07:26:09.954Z,55.09
2019-05-10T07:31:17.448Z,54.58
2019-05-10T07:36:27.249Z,53.60
2019-05-10T07:41:33.417Z,53.39
2019-05-10T07:46:47.094Z,53.37
2019-05-10T07:51:49.581Z,53.34
2019-05-10T07:56:56.600Z,53.72
2019-05-10T08:02:06.072Z,53.62
2019-05-10T08:07:12.455Z,53.62
2019-05-10T08:12:19.667Z,52.81
2019-05-10T08:17:28.793Z,52.62
2019-05-10T08:22:41.468Z,52.96
2019-05-10T08:27:50.236Z,53.19
2019-05-10T08:32:52.709Z,52.44
2019-05-10T08:38:02.305Z,52.91
2019-05-10T08:43:13.990Z,52.91
2019-05-10T08:48:19.301Z,52.97
2019-05-10T08:53:26.455Z,52.03
2019-05-10T08:58:37.181Z,51.27
2019-05-10T09:03:42.037Z,49.85
2019-05-10T09:08:55.331Z,49.67
2019-05-10T09:13:58.499Z,47.87
2019-05-10T09:19:05.559Z,47.74
2019-05-10T09:24:12.870Z,49.12
2019-05-10T09:29:21.792Z,49.12
2019-05-10T09:34:28.561Z,51.44
2019-05-10T09:39:35.534Z,53.14
2019-05-10T09:44:45.679Z,53.14
2019-05-10T09:49:56.691Z,53.11
2019-05-10T09:55:04.041Z,51.45
2019-05-10T10:00:09.845Z,51.45
2019-05-10T10:05:17.932Z,51.67
2019-05-10T10:10:31.705Z,54.50
2019-05-10T10:15:34.493Z,57.54
2019-05-10T10:26:01.563Z,60.64
2019-05-10T10:31:08.741Z,60.67
2019-05-10T10:36:15.685Z,58.90
2019-05-10T10:41:26.099Z,54.48
2019-05-10T10:46:30.495Z,54.48
2019-05-10T10:51:37.924Z,53.73
2019-05-10T10:56:44.292Z,53.96
2019-05-10T11:02:23.246Z,56.79
2019-05-10T11:07:10.067Z,56.68
2019-05-10T11:12:09.422Z,56.72
2019-05-10T11:17:16.486Z,55.03
2019-05-10T11:22:23.524Z,54.87
2019-05-10T11:27:30.997Z,53.24
2019-05-10T11:32:38.420Z,51.46
2019-05-10T11:37:45.846Z,49.75
2019-05-10T11:42:52.858Z,48.40
2019-05-10T11:48:02.037Z,47.53
2019-05-10T11:53:13.328Z,46.83
2019-05-10T11:58:17.438Z,48.52
2019-05-10T12:03:24.549Z,48.52
2019-05-10T12:08:32.423Z,49.50
2019-05-10T12:13:39.515Z,50.65
2019-05-10T12:19:02.439Z,50.05
2019-05-10T12:26:33.846Z,49.39
2019-05-10T12:29:12.431Z,48.98
2019-05-10T12:34:14.581Z,47.50
2019-05-10T12:39:21.574Z,46.99
2019-05-10T12:44:33.453Z,43.91
2019-05-10T12:49:40.927Z,43.91
2019-05-10T12:54:48.459Z,46.80
2019-05-10T12:59:55.549Z,49.58
2019-05-10T13:05:02.455Z,51.52
2019-05-10T13:10:10.279Z,51.92
2019-05-10T13:15:17.456Z,50.92
2019-05-10T13:20:30.726Z,48.67
2019-05-10T13:25:34.430Z,47.41
2019-05-10T13:30:41.546Z,47.41
2019-05-10T13:35:50.775Z,47.42
2019-05-10T13:40:58.412Z,47.22
2019-05-10T13:46:05.412Z,47.52
2019-05-10T13:51:12.447Z,47.78
2019-05-10T13:56:19.474Z,47.28
2019-05-10T14:01:26.578Z,47.37
2019-05-10T14:06:34.227Z,46.70
2019-05-10T14:11:46.644Z,46.70
2019-05-10T14:16:51.456Z,46.59
2019-05-10T14:21:58.861Z,45.33
2019-05-10T14:27:05.562Z,44.58
2019-05-10T14:32:12.435Z,42.45
2019-05-10T14:37:21.473Z,42.45
2019-05-10T14:42:31.279Z,42.66
2019-05-10T14:47:46.836Z,41.77
2019-05-10T14:52:46.400Z,41.59
2019-05-10T14:57:53.449Z,41.79
2019-05-10T15:03:02.460Z,41.98
2019-05-10T15:08:09.407Z,42.52
2019-05-10T15:13:19.515Z,42.66
2019-05-10T15:18:25.450Z,43.25
2019-05-10T15:23:32.449Z,43.28
2019-05-10T15:28:42.133Z,43.33
2019-05-10T15:33:48.449Z,42.99
2019-05-10T15:38:55.447Z,42.37
2019-05-10T15:44:02.475Z,42.67
2019-05-10T15:49:13.586Z,43.05
2019-05-10T15:54:19.441Z,41.87
2019-05-10T15:59:26.435Z,41.52
2019-05-10T16:04:33.614Z,42.83
2019-05-10T16:09:40.467Z,46.14
2019-05-10T16:14:47.453Z,46.14
2019-05-10T16:19:59.457Z,46.75
2019-05-10T16:25:03.470Z,45.92
2019-05-10T16:30:11.897Z,43.74
2019-05-10T16:35:22.019Z,41.90
2019-05-10T16:40:28.463Z,41.30
2019-05-10T16:45:35.714Z,42.14
2019-05-10T16:50:42.560Z,41.67
2019-05-10T16:55:49.459Z,40.57
2019-05-10T17:00:58.490Z,40.57
2019-05-10T17:06:05.794Z,40.33
2019-05-10T17:11:12.747Z,40.56
2019-05-10T17:16:19.585Z,42.27
2019-05-10T17:21:28.450Z,42.48
2019-05-10T17:26:35.495Z,42.83
2019-05-10T17:31:45.590Z,43.83
2019-05-10T17:36:57.073Z,43.83
2019-05-10T17:42:03.063Z,44.78
2019-05-10T17:47:09.566Z,44.78
2019-05-10T17:52:16.519Z,47.08
2019-05-10T17:57:25.894Z,47.08
2019-05-10T18:02:32.660Z,47.68
2019-05-10T18:07:39.575Z,48.47
2019-05-10T18:12:46.444Z,48.47
2019-05-10T18:17:57.454Z,48.74
2019-05-10T18:23:02.454Z,49.23
2019-05-10T18:28:09.543Z,49.53
2019-05-10T18:33:16.464Z,50.04
2019-05-10T18:38:23.917Z,50.43
2019-05-10T18:43:35.330Z,51.01
2019-05-10T18:48:40.451Z,51.42
2019-05-10T18:53:47.442Z,51.79
2019-05-10T18:58:54.572Z,52.38
2019-05-10T19:04:01.451Z,52.98
2019-05-10T19:09:09.680Z,53.04
2019-05-10T19:14:16.578Z,53.36
2019-05-10T19:19:24.872Z,53.36
2019-05-10T19:24:32.245Z,53.29
2019-05-10T19:29:45.557Z,53.65
2019-05-10T19:34:56.931Z,53.91
2019-05-10T19:39:57.444Z,54.15
2019-05-10T19:45:04.594Z,54.59
2019-05-10T19:50:12.232Z,54.96
2019-05-10T19:55:21.690Z,54.96
2019-05-10T20:00:29.271Z,55.24
2019-05-10T20:05:36.471Z,55.45
2019-05-10T20:10:43.480Z,55.57
2019-05-10T20:15:50.523Z,55.84
2019-05-10T20:20:57.580Z,55.88
2019-05-10T20:26:05.627Z,56.07
2019-05-10T20:31:12.513Z,56.29
2019-05-10T20:36:19.498Z,56.29
2019-05-10T20:41:30.264Z,56.45
2019-05-10T20:46:37.496Z,56.49
2019-05-10T20:51:44.490Z,56.60
2019-05-10T20:56:51.522Z,56.75
2019-05-10T21:01:58.474Z,56.96
2019-05-10T21:07:05.483Z,57.04
2019-05-10T21:12:13.715Z,57.24
2019-05-10T21:17:21.677Z,57.52
2019-05-10T21:22:28.455Z,57.65
2019-05-10T21:27:35.586Z,57.65
2019-05-10T21:32:42.470Z,57.60
2019-05-10T21:37:49.574Z,57.60
2019-05-10T21:42:56.499Z,57.82
2019-05-10T21:48:03.772Z,58.38
2019-05-10T21:53:12.460Z,58.49
2019-05-10T21:58:19.531Z,58.65
2019-05-10T22:03:27.104Z,58.82
2019-05-10T22:08:48.342Z,59.25
2019-05-10T22:16:18.573Z,59.32
2019-05-10T22:21:25.460Z,59.76
2019-05-10T22:26:32.437Z,60.02
2019-05-10T22:31:40.623Z,60.20
2019-05-10T22:36:47.563Z,60.90
2019-05-10T22:41:54.487Z,61.37
2019-05-10T22:47:01.447Z,61.37
2019-05-10T22:52:08.453Z,61.67
2019-05-10T22:57:16.557Z,62.01
2019-05-10T23:02:23.609Z,62.11
2019-05-10T23:07:30.497Z,62.31
2019-05-10T23:12:39.403Z,62.42
2019-05-10T23:17:46.462Z,62.42
2019-05-10T23:22:53.464Z,62.68
2019-05-10T23:28:02.906Z,62.82
2019-05-10T23:33:09.934Z,62.92
2019-05-10T23:38:16.777Z,63.06
2019-05-10T23:43:23.910Z,63.22
2019-05-10T23:48:34.269Z,63.59
2019-05-10T23:53:44.776Z,64.44
2019-05-10T23:58:51.599Z,64.44
